Time;durP1;ratioP1;P1;durP2;ratioP2;P2;SDS_P1;SDS_P2;PMS_P1;PMS_P2;Temp;Humidity;BMP_temperature;BMP_pressure;BME280_temperature;BME280_humidity;BME280_pressure;Samples;Min_cycle;Max_cycle;Signal;HPM_P1;HPM_P2
2022/01/26 00:06:09;;;;;;;4.50;1.00;;;26.20;92.40;;;;;;5032680;28;20076;-70
2022/01/26 00:08:38;;;;;;;5.10;1.70;;;26.30;92.70;;;;;;5030025;28;20057;-76
2022/01/26 00:11:06;;;;;;;4.55;0.90;;;26.40;93.20;;;;;;5029624;28;20478;-73
2022/01/26 00:13:34;;;;;;;5.05;1.00;;;26.40;92.70;;;;;;5031410;28;20022;-76
2022/01/26 00:16:04;;;;;;;4.28;0.93;;;26.50;92.80;;;;;;5031914;28;20032;-72
2022/01/26 00:18:35;;;;;;;4.22;1.10;;;26.50;92.80;;;;;;5031490;28;20375;-71
2022/01/26 00:21:15;;;;;;;6.85;1.40;;;26.40;92.90;;;;;;5031846;28;20014;-72
2022/01/26 00:24:08;;;;;;;2.58;0.77;;;26.50;92.80;;;;;;5033725;28;20045;-72
2022/01/26 00:29:17;;;;;;;8.35;0.98;;;26.80;92.50;;;;;;5031649;28;20128;-73
2022/01/26 00:40:36;;;;;;;9.45;1.00;;;27.50;91.30;;;;;;5030030;28;20032;-69
2022/01/26 00:43:24;;;;;;;4.32;1.00;;;27.50;91.10;;;;;;5029318;28;20371;-73
2022/01/26 00:45:56;;;;;;;3.33;0.73;;;27.30;91.60;;;;;;5028544;28;20040;-70
2022/01/26 00:48:25;;;;;;;3.97;0.73;;;27.50;91.60;;;;;;5028830;28;20026;-71
2022/01/26 00:50:53;;;;;;;8.43;0.80;;;27.60;91.10;;;;;;5031704;28;20020;-69
2022/01/26 00:53:26;;;;;;;2.90;0.65;;;27.40;90.80;;;;;;5030811;28;20017;-71
2022/01/26 00:55:53;;;;;;;5.32;0.80;;;27.50;91.10;;;;;;5031542;28;20021;-70
2022/01/26 00:58:21;;;;;;;4.82;0.75;;;27.60;91.10;;;;;;5032007;28;20021;-68
2022/01/26 01:00:49;;;;;;;2.63;0.60;;;27.60;90.40;;;;;;5031994;28;20032;-71
2022/01/26 01:03:16;;;;;;;6.80;1.48;;;27.40;90.90;;;;;;5032437;28;20108;-72
2022/01/26 01:06:05;;;;;;;4.47;0.63;;;27.30;90.50;;;;;;5032447;28;20064;-73
2022/01/26 01:08:34;;;;;;;3.28;0.93;;;27.50;90.70;;;;;;5032423;28;20032;-67
2022/01/26 01:11:03;;;;;;;5.75;1.80;;;27.50;90.70;;;;;;5030915;28;20065;-72
2022/01/26 01:13:34;;;;;;;2.85;0.65;;;27.60;90.40;;;;;;5030886;28;20108;-69
2022/01/26 01:16:02;;;;;;;2.60;0.68;;;27.50;90.90;;;;;;5032400;28;20116;-70
2022/01/26 01:18:40;;;;;;;3.35;0.77;;;27.60;90.50;;;;;;5032214;28;20486;-69
2022/01/26 01:24:24;;;;;;;2.60;0.77;;;27.70;90.20;;;;;;5026750;28;20092;-70
2022/01/26 01:29:26;;;;;;;5.55;0.88;;;27.90;90.00;;;;;;5031611;28;20108;-71
2022/01/26 01:31:59;;;;;;;5.57;1.15;;;27.90;90.20;;;;;;5030156;28;20044;-70
2022/01/26 01:34:36;;;;;;;4.97;1.13;;;28.10;90.20;;;;;;5031617;28;20057;-70
2022/01/26 01:37:07;;;;;;;4.55;0.90;;;28.00;90.30;;;;;;5031550;28;20017;-70
2022/01/26 01:39:38;;;;;;;7.25;0.90;;;28.10;89.60;;;;;;5031658;28;20026;-72
2022/01/26 01:42:07;;;;;;;3.75;1.00;;;28.20;90.00;;;;;;5032098;28;20032;-69
2022/01/26 01:44:36;;;;;;;4.20;0.73;;;28.20;88.90;;;;;;5031957;28;20609;-70
2022/01/26 01:47:06;;;;;;;5.65;0.68;;;28.40;89.50;;;;;;5031876;28;20037;-73
2022/01/26 01:49:33;;;;;;;4.05;0.82;;;28.50;88.00;;;;;;5031986;28;20126;-72
2022/01/26 01:52:04;;;;;;;7.95;0.70;;;28.50;88.20;;;;;;5029266;28;20405;-72
2022/01/26 01:54:32;;;;;;;4.80;0.75;;;28.60;87.00;;;;;;5031577;28;20336;-71
2022/01/26 01:57:06;;;;;;;4.60;0.75;;;28.70;87.90;;;;;;5019877;28;20030;-71
2022/01/26 01:59:34;;;;;;;4.55;0.57;;;28.80;87.40;;;;;;5018913;28;20026;-71
2022/01/26 02:02:03;;;;;;;2.72;0.70;;;28.90;86.90;;;;;;5010004;28;20024;-72
2022/01/26 02:04:30;;;;;;;3.83;1.10;;;28.90;87.00;;;;;;5011099;28;20026;-72
2022/01/26 02:06:58;;;;;;;3.30;0.68;;;29.00;86.70;;;;;;5011788;28;20427;-71
2022/01/26 02:09:25;;;;;;;6.45;0.73;;;28.80;85.90;;;;;;5011686;28;20113;-70
2022/01/26 02:11:56;;;;;;;7.13;0.82;;;28.80;86.10;;;;;;5011438;28;20029;-71
2022/01/26 02:14:30;;;;;;;3.05;0.80;;;28.80;86.00;;;;;;5010480;28;20021;-71
2022/01/26 02:20:23;;;;;;;3.40;0.98;;;28.80;87.80;;;;;;5009951;28;20095;-71
2022/01/26 02:50:40;;;;;;;2.75;0.65;;;29.00;84.50;;;;;;5015097;28;20029;-71
2022/01/26 02:53:41;;;;;;;3.22;0.70;;;29.10;84.70;;;;;;5014948;28;20029;-72
2022/01/26 02:56:18;;;;;;;5.53;0.98;;;29.30;84.70;;;;;;5015064;28;20475;-73
2022/01/26 02:59:09;;;;;;;4.57;0.70;;;29.80;83.80;;;;;;5015050;28;20478;-70
2022/01/26 03:01:48;;;;;;;5.93;1.00;;;30.00;82.30;;;;;;5015026;28;20018;-71
2022/01/26 03:09:36;;;;;;;3.70;0.68;;;30.50;80.90;;;;;;5014117;28;20033;-71
2022/01/26 03:12:05;;;;;;;2.65;1.05;;;30.40;80.90;;;;;;5013873;28;20442;-71
2022/01/26 03:17:10;;;;;;;3.88;0.57;;;30.70;78.70;;;;;;5014216;28;20014;-72
2022/01/26 03:19:45;;;;;;;5.50;0.50;;;30.90;80.70;;;;;;5014164;28;20026;-70
2022/01/26 03:30:08;;;;;;;5.03;1.15;;;31.70;78.00;;;;;;5014158;28;20037;-74
2022/01/26 03:35:13;;;;;;;5.13;0.60;;;32.00;75.60;;;;;;5013593;28;20169;-72
2022/01/26 03:37:50;;;;;;;2.33;0.40;;;32.00;75.40;;;;;;5013349;28;20034;-72
2022/01/26 03:40:17;;;;;;;10.57;2.50;;;31.70;75.00;;;;;;5013718;28;20075;-72
2022/01/26 03:42:45;;;;;;;5.32;0.95;;;32.00;75.60;;;;;;5029266;28;20479;-72
2022/01/26 03:45:12;;;;;;;7.35;1.08;;;32.50;74.10;;;;;;5014018;28;20029;-71
2022/01/26 03:47:39;;;;;;;3.20;0.82;;;32.40;73.70;;;;;;5013735;28;20026;-69
2022/01/26 03:50:07;;;;;;;4.05;0.90;;;32.60;73.40;;;;;;5013822;28;20111;-71
2022/01/26 03:52:34;;;;;;;1.85;0.60;;;32.50;72.10;;;;;;5013627;28;20026;-71
2022/01/26 03:55:02;;;;;;;4.95;0.95;;;31.90;73.20;;;;;;5013346;28;20471;-72
2022/01/26 03:57:29;;;;;;;2.47;0.75;;;31.90;73.70;;;;;;5013677;28;20095;-69
2022/01/26 03:59:57;;;;;;;3.40;0.70;;;32.10;72.50;;;;;;5013545;28;20025;-74
2022/01/26 04:02:24;;;;;;;3.92;1.13;;;32.30;73.00;;;;;;5013155;28;20033;-69
2022/01/26 04:04:57;;;;;;;4.72;0.77;;;32.30;72.70;;;;;;5013222;28;20025;-72
2022/01/26 04:07:25;;;;;;;3.72;0.75;;;32.30;73.60;;;;;;5013200;28;20113;-73
2022/01/26 04:09:53;;;;;;;3.58;0.60;;;32.40;72.20;;;;;;5013307;28;20159;-71
2022/01/26 04:12:20;;;;;;;7.63;1.10;;;32.80;72.30;;;;;;5013077;28;20471;-73
2022/01/26 04:14:53;;;;;;;5.40;0.55;;;33.00;70.30;;;;;;5013255;28;20022;-71
2022/01/26 04:17:21;;;;;;;4.70;0.90;;;33.00;70.50;;;;;;5014262;28;20026;-71
2022/01/26 04:19:54;;;;;;;3.38;0.75;;;33.20;70.50;;;;;;5013797;28;20022;-72
2022/01/26 04:22:29;;;;;;;4.60;0.80;;;32.80;71.50;;;;;;5013137;28;20117;-71
2022/01/26 04:24:56;;;;;;;4.35;1.52;;;33.20;70.50;;;;;;5013206;28;20077;-74
2022/01/26 04:27:41;;;;;;;5.65;0.70;;;33.20;70.00;;;;;;5028439;28;20030;-74
2022/01/26 04:30:09;;;;;;;6.00;1.20;;;33.30;69.80;;;;;;5012886;28;20025;-73
2022/01/26 04:32:36;;;;;;;3.63;1.02;;;33.20;69.90;;;;;;5012991;28;20105;-68
2022/01/26 04:35:04;;;;;;;5.22;0.95;;;33.30;69.00;;;;;;5013301;28;20080;-72
2022/01/26 04:37:55;;;;;;;6.57;0.82;;;33.10;69.50;;;;;;5013299;28;20026;-70
2022/01/26 04:40:18;;;;;;;3.05;0.63;;;33.00;69.10;;;;;;5013275;28;20112;-71
2022/01/26 04:42:59;;;;;;;1.73;0.70;;;32.90;69.20;;;;;;5012623;28;20022;-73
2022/01/26 04:45:27;;;;;;;6.57;1.00;;;32.90;69.00;;;;;;5012771;28;20021;-72
2022/01/26 04:47:54;;;;;;;3.33;0.60;;;32.80;70.00;;;;;;5012339;28;20107;-71
2022/01/26 04:50:21;;;;;;;2.08;0.45;;;33.00;69.50;;;;;;5012718;28;20084;-72
2022/01/26 04:52:48;;;;;;;1.95;0.43;;;32.90;69.50;;;;;;5012816;28;20029;-71
2022/01/26 04:55:16;;;;;;;5.13;0.50;;;33.20;69.50;;;;;;5013082;28;20026;-71
2022/01/26 04:57:43;;;;;;;3.35;0.60;;;33.30;68.20;;;;;;5013156;28;20029;-70
2022/01/26 05:00:12;;;;;;;3.90;0.60;;;32.80;68.70;;;;;;5013101;28;20052;-72
2022/01/26 05:02:39;;;;;;;3.22;0.40;;;32.80;68.70;;;;;;5012575;28;20025;-71
2022/01/26 05:05:07;;;;;;;4.53;0.52;;;32.50;70.20;;;;;;5012697;28;20467;-71
2022/01/26 05:07:34;;;;;;;4.70;0.45;;;32.70;69.20;;;;;;5011302;28;20061;-70
2022/01/26 05:10:03;;;;;;;6.13;0.80;;;32.70;68.40;;;;;;5011432;28;20038;-70
2022/01/26 05:12:31;;;;;;;3.75;0.70;;;32.90;68.20;;;;;;5011194;28;20030;-73
2022/01/26 05:14:59;;;;;;;4.22;0.50;;;33.30;68.20;;;;;;5013302;28;20030;-70
2022/01/26 05:17:26;;;;;;;2.45;0.30;;;33.40;67.40;;;;;;5012217;28;20018;-70
2022/01/26 05:19:57;;;;;;;5.32;0.73;;;33.60;66.40;;;;;;5012672;28;20168;-71
2022/01/26 05:22:24;;;;;;;3.67;0.60;;;33.50;67.00;;;;;;5012749;28;20056;-70
2022/01/26 05:24:53;;;;;;;3.70;0.63;;;33.80;66.20;;;;;;5012311;28;20270;-71
2022/01/26 05:27:20;;;;;;;2.95;0.65;;;33.60;66.10;;;;;;5022671;28;20037;-71
2022/01/26 05:29:47;;;;;;;3.13;0.73;;;33.80;66.70;;;;;;5031561;28;20096;-71
2022/01/26 05:32:15;;;;;;;2.10;0.45;;;33.80;65.30;;;;;;5029266;28;20131;-71
2022/01/26 05:34:42;;;;;;;2.75;0.40;;;33.30;65.70;;;;;;5031981;28;20022;-71
2022/01/26 05:37:09;;;;;;;3.85;0.95;;;33.20;66.90;;;;;;5031799;28;20022;-71
2022/01/26 05:39:38;;;;;;;4.47;0.70;;;33.30;66.50;;;;;;5032336;28;20028;-70
2022/01/26 05:42:07;;;;;;;2.90;0.55;;;33.40;66.70;;;;;;5031847;28;20029;-74
2022/01/26 05:44:35;;;;;;;4.72;0.75;;;33.10;65.70;;;;;;5031897;28;20021;-72
2022/01/26 05:47:04;;;;;;;4.63;0.52;;;32.70;66.80;;;;;;5032504;28;20541;-71
2022/01/26 05:49:32;;;;;;;2.58;0.40;;;32.60;66.70;;;;;;5032206;28;20037;-70
2022/01/26 05:51:59;;;;;;;5.22;0.70;;;32.80;67.40;;;;;;5032199;28;20033;-71
2022/01/26 05:54:26;;;;;;;4.35;0.60;;;32.30;67.90;;;;;;5031642;28;20027;-72
2022/01/26 05:56:53;;;;;;;4.07;1.17;;;32.20;67.10;;;;;;5024938;28;20029;-72
2022/01/26 05:59:21;;;;;;;4.32;0.70;;;32.50;67.30;;;;;;5029929;28;20341;-71
2022/01/26 06:01:49;;;;;;;4.38;0.68;;;32.80;67.50;;;;;;5030295;28;20048;-71
2022/01/26 06:04:18;;;;;;;4.30;1.25;;;32.30;67.40;;;;;;5030873;28;20067;-71
2022/01/26 06:06:45;;;;;;;3.25;0.73;;;31.90;68.30;;;;;;5031205;28;20474;-71
2022/01/26 06:09:13;;;;;;;5.68;0.65;;;32.20;68.00;;;;;;5030879;28;20021;-71
2022/01/26 06:11:40;;;;;;;3.80;0.60;;;32.10;67.70;;;;;;5029563;28;20269;-71
2022/01/26 06:14:07;;;;;;;3.35;0.70;;;31.70;67.80;;;;;;5031808;28;20029;-71
2022/01/26 06:16:35;;;;;;;2.55;0.68;;;31.50;68.30;;;;;;5032013;28;20030;-71
2022/01/26 06:19:02;;;;;;;2.42;0.45;;;31.70;68.40;;;;;;5032197;28;20029;-71
2022/01/26 06:21:29;;;;;;;4.72;0.85;;;31.40;68.00;;;;;;5030875;28;20386;-71
2022/01/26 06:23:58;;;;;;;3.78;0.88;;;31.00;70.00;;;;;;5030881;28;20578;-72
2022/01/26 06:26:25;;;;;;;3.28;1.67;;;30.50;70.50;;;;;;5032248;28;20408;-70
2022/01/26 06:28:52;;;;;;;4.95;1.08;;;30.30;70.50;;;;;;5031672;28;20037;-71
2022/01/26 06:31:20;;;;;;;2.17;0.73;;;30.30;70.50;;;;;;5031577;28;20113;-71
2022/01/26 06:33:48;;;;;;;4.32;0.80;;;30.50;70.60;;;;;;5031934;28;20378;-71
2022/01/26 06:36:16;;;;;;;4.85;1.30;;;30.40;70.40;;;;;;5032188;28;20159;-71
2022/01/26 06:38:46;;;;;;;5.05;1.40;;;29.90;71.10;;;;;;5030931;28;20032;-71
2022/01/26 06:41:15;;;;;;;5.07;1.48;;;29.60;71.50;;;;;;5031238;28;20120;-72
2022/01/26 06:43:52;;;;;;;4.70;1.80;;;29.40;72.90;;;;;;5032486;28;20067;-72
2022/01/26 06:46:26;;;;;;;4.13;1.40;;;29.00;73.00;;;;;;5032483;28;20025;-69
2022/01/26 06:49:28;;;;;;;4.07;0.95;;;28.60;73.80;;;;;;5032588;28;20026;-73
2022/01/26 06:51:51;;;;;;;5.45;1.05;;;28.60;75.00;;;;;;5031905;28;20121;-71
2022/01/26 06:54:18;;;;;;;4.75;0.80;;;28.70;74.50;;;;;;5030739;28;20030;-71
2022/01/26 06:56:46;;;;;;;4.45;1.00;;;28.60;75.10;;;;;;5032029;28;20021;-68
2022/01/26 06:59:14;;;;;;;6.80;0.90;;;28.50;74.90;;;;;;5031727;28;20026;-68
2022/01/26 07:01:42;;;;;;;3.75;1.25;;;28.50;75.30;;;;;;5031814;28;20386;-70
2022/01/26 07:04:09;;;;;;;3.53;0.65;;;28.60;75.90;;;;;;5031932;28;20124;-72
2022/01/26 07:06:36;;;;;;;4.57;0.90;;;28.70;74.60;;;;;;5031548;28;20020;-69
2022/01/26 07:09:04;;;;;;;6.00;0.80;;;28.60;75.90;;;;;;5031123;28;20079;-69
2022/01/26 07:11:31;;;;;;;5.10;0.90;;;28.40;74.90;;;;;;5032299;28;20044;-70
2022/01/26 07:14:00;;;;;;;3.63;0.88;;;28.10;76.80;;;;;;5035021;28;20040;-69
2022/01/26 07:22:12;;;;;;;6.72;1.30;;;27.90;76.60;;;;;;5011971;28;20029;-69
2022/01/26 07:24:40;;;;;;;6.10;0.70;;;27.80;76.60;;;;;;5035200;28;20037;-72
2022/01/26 07:27:07;;;;;;;3.83;1.23;;;27.60;76.70;;;;;;5035019;28;20014;-69
2022/01/26 07:29:35;;;;;;;4.75;0.70;;;27.40;77.60;;;;;;5035058;28;20033;-68
2022/01/26 07:32:05;;;;;;;3.38;1.02;;;27.20;78.60;;;;;;5034706;28;20037;-68
2022/01/26 07:34:32;;;;;;;4.65;0.60;;;27.10;79.10;;;;;;5034970;28;20029;-73
2022/01/26 07:37:05;;;;;;;4.63;0.80;;;27.00;79.90;;;;;;5034836;28;20028;-68
2022/01/26 07:39:44;;;;;;;3.65;0.57;;;26.90;79.50;;;;;;5033730;28;20021;-68
2022/01/26 07:42:13;;;;;;;5.40;1.00;;;26.80;79.50;;;;;;5035022;28;20030;-67
2022/01/26 07:44:40;;;;;;;3.72;1.08;;;26.80;80.30;;;;;;5034681;28;20032;-72
2022/01/26 07:47:08;;;;;;;4.68;0.85;;;26.80;80.20;;;;;;5034740;28;20032;-68
2022/01/26 07:49:35;;;;;;;5.72;0.90;;;26.70;80.50;;;;;;5034656;28;20026;-67
2022/01/26 07:52:03;;;;;;;3.85;0.88;;;26.70;80.90;;;;;;5034570;28;20053;-71
2022/01/26 07:54:32;;;;;;;4.97;1.25;;;26.70;80.50;;;;;;5034475;28;20034;-68
2022/01/26 07:57:01;;;;;;;5.10;0.82;;;26.80;80.70;;;;;;5034423;28;20477;-70
2022/01/26 07:59:29;;;;;;;5.80;1.10;;;26.70;81.10;;;;;;5034331;28;20014;-70
2022/01/26 08:01:56;;;;;;;4.55;0.80;;;26.50;82.10;;;;;;5033080;28;20017;-69
2022/01/26 08:04:23;;;;;;;5.82;2.00;;;26.40;82.20;;;;;;5034513;28;20025;-69
2022/01/26 08:06:51;;;;;;;7.22;1.70;;;26.40;82.50;;;;;;5034348;28;20029;-71
2022/01/26 08:09:18;;;;;;;9.30;1.27;;;26.30;83.40;;;;;;5034023;28;20036;-70
2022/01/26 08:11:46;;;;;;;6.72;0.95;;;26.30;83.70;;;;;;5034125;28;20033;-69
2022/01/26 08:14:13;;;;;;;5.45;1.13;;;26.30;83.00;;;;;;5034244;28;20552;-72
2022/01/26 08:16:40;;;;;;;5.45;1.17;;;26.30;82.70;;;;;;5034320;28;20033;-72
2022/01/26 08:19:08;;;;;;;6.47;1.70;;;26.10;83.00;;;;;;5034210;28;20516;-71
2022/01/26 08:21:36;;;;;;;4.32;0.93;;;26.10;83.40;;;;;;5033422;28;20108;-71
2022/01/26 08:24:12;;;;;;;11.25;2.20;;;25.90;84.30;;;;;;5032258;28;20454;-69
2022/01/26 08:26:44;;;;;;;5.50;1.65;;;25.90;84.10;;;;;;5034088;28;20380;-70
2022/01/26 08:29:19;;;;;;;4.68;0.95;;;25.70;84.40;;;;;;5034012;28;20029;-69
2022/01/26 08:31:46;;;;;;;3.92;0.82;;;25.70;85.10;;;;;;5032569;28;20037;-70
2022/01/26 08:34:14;;;;;;;3.10;0.70;;;25.60;85.10;;;;;;5033947;28;20052;-69
2022/01/26 08:36:41;;;;;;;9.93;2.17;;;25.50;85.60;;;;;;5033958;28;20028;-71
2022/01/26 08:39:08;;;;;;;5.72;1.13;;;25.40;86.00;;;;;;5033765;28;20022;-68
2022/01/26 08:41:36;;;;;;;4.80;1.00;;;25.40;86.00;;;;;;5033527;28;20111;-68
2022/01/26 08:44:04;;;;;;;6.47;1.20;;;25.30;86.50;;;;;;5033609;28;20387;-67
2022/01/26 08:46:31;;;;;;;5.40;1.00;;;25.20;87.30;;;;;;5033366;28;20033;-69
2022/01/26 08:48:58;;;;;;;6.18;1.13;;;25.10;87.70;;;;;;5033526;28;20025;-69
2022/01/26 08:51:26;;;;;;;7.32;1.30;;;25.00;87.60;;;;;;5033339;28;20025;-68
2022/01/26 08:53:53;;;;;;;5.05;0.90;;;25.00;88.00;;;;;;5033191;28;20013;-68
2022/01/26 08:56:20;;;;;;;5.82;0.95;;;24.90;88.10;;;;;;5033385;28;20033;-67
2022/01/26 08:58:48;;;;;;;4.18;1.00;;;24.80;88.70;;;;;;5033259;28;20492;-67
2022/01/26 09:01:15;;;;;;;4.53;1.00;;;24.70;88.80;;;;;;5032986;28;20049;-69
2022/01/26 09:03:43;;;;;;;6.32;1.40;;;24.80;89.20;;;;;;5033092;28;20470;-68
2022/01/26 09:06:10;;;;;;;6.45;1.13;;;24.80;89.20;;;;;;5031674;28;20121;-68
2022/01/26 09:08:40;;;;;;;6.18;1.10;;;24.80;88.80;;;;;;5033229;28;20021;-68
2022/01/26 09:11:09;;;;;;;5.93;1.10;;;24.70;88.90;;;;;;5033065;28;20049;-68
2022/01/26 09:13:36;;;;;;;6.40;0.90;;;24.60;89.70;;;;;;5033210;28;20421;-68
2022/01/26 09:16:09;;;;;;;7.72;1.55;;;24.50;90.00;;;;;;5033113;28;20059;-67
2022/01/26 09:18:50;;;;;;;;;;;24.40;90.30;;;;;;5033414;28;20100;-67
2022/01/26 09:21:19;;;;;;;9.60;1.57;;;24.40;90.40;;;;;;5032926;28;19905;-67
2022/01/26 09:23:46;;;;;;;2.90;1.10;;;24.40;90.50;;;;;;5032889;28;20083;-67
2022/01/26 09:26:14;;;;;;;8.20;1.58;;;24.40;90.40;;;;;;5033019;28;20566;-67
2022/01/26 09:28:41;;;;;;;6.15;0.82;;;24.50;90.40;;;;;;5033005;28;20018;-67
2022/01/26 09:31:09;;;;;;;7.85;1.42;;;24.40;90.30;;;;;;5032685;28;20091;-68
2022/01/26 09:33:36;;;;;;;6.03;1.42;;;24.30;90.40;;;;;;5032533;28;20033;-68
2022/01/26 09:36:04;;;;;;;6.63;1.40;;;24.30;90.80;;;;;;5032615;28;20029;-67
2022/01/26 09:38:32;;;;;;;7.25;1.08;;;24.30;91.10;;;;;;5032309;28;20064;-67
2022/01/26 09:40:59;;;;;;;4.72;1.50;;;24.30;91.00;;;;;;5032422;28;20442;-69
2022/01/26 09:43:28;;;;;;;5.03;1.40;;;24.40;91.30;;;;;;5032334;28;20024;-68
2022/01/26 09:45:55;;;;;;;5.57;1.05;;;24.50;91.20;;;;;;5032345;28;20022;-68
2022/01/26 09:48:22;;;;;;;4.82;1.15;;;24.50;91.20;;;;;;5032673;28;20025;-69
2022/01/26 09:50:54;;;;;;;5.78;0.90;;;24.40;91.30;;;;;;5032545;28;20478;-67
2022/01/26 09:53:28;;;;;;;5.60;2.30;;;24.40;91.40;;;;;;5032561;28;20500;-67
2022/01/26 09:55:56;;;;;;;6.03;1.17;;;24.40;91.40;;;;;;5032454;28;20029;-69
2022/01/26 09:58:23;;;;;;;8.70;1.70;;;24.30;91.40;;;;;;5032255;28;20528;-68
2022/01/26 10:01:02;;;;;;;6.22;1.15;;;24.30;91.40;;;;;;5032438;28;20378;-70
2022/01/26 10:03:35;;;;;;;5.28;1.55;;;24.40;91.50;;;;;;5032844;28;20021;-67
2022/01/26 10:06:03;;;;;;;5.80;1.55;;;24.40;91.40;;;;;;5032128;28;20032;-68
2022/01/26 10:19:12;;;;;;;8.05;3.40;;;24.30;91.80;;;;;;5032125;28;20025;-68
2022/01/26 10:21:51;;;;;;;5.70;3.05;;;24.20;91.80;;;;;;5032013;28;20116;-68
2022/01/26 10:24:24;;;;;;;10.40;3.80;;;24.10;91.80;;;;;;5031650;28;20053;-72
2022/01/26 10:26:59;;;;;;;8.90;3.22;;;24.10;92.10;;;;;;5032130;28;20083;-70
2022/01/26 10:29:27;;;;;;;6.68;2.38;;;24.10;91.90;;;;;;5031664;28;20021;-67
2022/01/26 10:31:55;;;;;;;5.53;1.38;;;24.10;92.10;;;;;;5031709;28;20057;-71
2022/01/26 10:34:23;;;;;;;6.13;1.30;;;24.10;92.00;;;;;;5031959;28;20074;-70
2022/01/26 10:37:00;;;;;;;7.00;1.42;;;24.00;92.20;;;;;;5032058;28;20030;-71
2022/01/26 10:39:33;;;;;;;6.13;1.52;;;24.00;92.50;;;;;;5032016;28;20029;-69
2022/01/26 10:42:06;;;;;;;7.32;2.28;;;24.00;92.50;;;;;;5031892;28;20108;-71
2022/01/26 10:44:47;;;;;;;7.95;1.60;;;24.10;92.40;;;;;;5032017;28;20025;-69
2022/01/26 10:47:16;;;;;;;4.88;1.52;;;24.10;92.50;;;;;;5035750;28;20580;-69
2022/01/26 10:52:36;;;;;;;4.73;1.23;;;24.10;92.50;;;;;;5035706;28;20038;-70
2022/01/26 10:55:07;;;;;;;5.82;1.05;;;24.10;92.50;;;;;;5035194;28;20021;-69
2022/01/26 10:57:35;;;;;;;6.40;1.23;;;24.00;92.70;;;;;;5035582;28;20022;-68
2022/01/26 11:00:04;;;;;;;8.27;1.23;;;24.10;92.90;;;;;;5035549;28;20062;-68
2022/01/26 11:02:34;;;;;;;5.50;1.25;;;24.10;93.10;;;;;;5035450;28;20025;-68
2022/01/26 11:05:01;;;;;;;5.18;1.02;;;24.20;92.70;;;;;;5035246;28;20048;-69
2022/01/26 11:07:47;;;;;;;5.43;1.08;;;24.20;92.70;;;;;;5035161;28;20096;-69
2022/01/26 11:10:16;;;;;;;6.75;1.27;;;24.20;92.60;;;;;;5035139;28;20477;-70
2022/01/26 11:12:44;;;;;;;5.38;1.05;;;24.10;92.80;;;;;;5035201;28;20033;-69
2022/01/26 11:15:16;;;;;;;5.68;0.60;;;24.10;92.60;;;;;;5035156;28;20537;-69
2022/01/26 11:17:46;;;;;;;5.93;1.70;;;24.00;92.60;;;;;;5035478;28;20431;-70
2022/01/26 11:20:17;;;;;;;6.72;1.02;;;23.90;92.70;;;;;;5035316;28;20436;-69
2022/01/26 11:22:53;;;;;;;5.43;0.90;;;23.80;92.60;;;;;;5035111;28;20080;-69
2022/01/26 11:25:23;;;;;;;3.83;0.70;;;23.80;92.80;;;;;;5035291;28;20034;-69
2022/01/26 11:27:51;;;;;;;4.15;1.02;;;23.70;92.50;;;;;;5035183;28;20486;-69
2022/01/26 11:30:25;;;;;;;3.55;0.82;;;23.70;92.70;;;;;;5034790;28;20032;-69
2022/01/26 11:33:05;;;;;;;2.95;0.80;;;23.60;93.00;;;;;;5034941;28;20029;-70
2022/01/26 11:35:35;;;;;;;4.22;0.90;;;23.60;92.70;;;;;;5035034;28;20018;-70
2022/01/26 11:39:14;;;;;;;5.65;0.75;;;23.70;92.70;;;;;;5034766;28;20474;-71
2022/01/26 11:47:09;;;;;;;4.20;0.98;;;23.70;92.20;;;;;;5035126;28;20036;-69
2022/01/26 11:49:44;;;;;;;6.15;1.05;;;23.70;92.20;;;;;;5034762;28;20032;-70
2022/01/26 11:52:26;;;;;;;3.88;1.02;;;23.70;92.20;;;;;;5034217;28;20148;-70
2022/01/26 11:54:57;;;;;;;2.80;0.80;;;23.60;92.20;;;;;;5034801;28;20025;-70
2022/01/26 11:58:13;;;;;;;4.00;0.80;;;23.60;92.30;;;;;;5034442;28;20027;-69
2022/01/26 12:03:54;;;;;;;3.70;1.10;;;23.60;92.20;;;;;;5034609;28;20109;-69
2022/01/26 12:06:53;;;;;;;3.33;0.70;;;23.60;92.30;;;;;;5034303;28;20026;-70
2022/01/26 12:09:20;;;;;;;4.32;0.80;;;23.50;92.20;;;;;;5034100;28;20030;-69
2022/01/26 12:11:55;;;;;;;4.70;1.23;;;23.40;92.30;;;;;;5033146;28;20033;-69
2022/01/26 12:14:23;;;;;;;4.13;0.70;;;23.40;92.30;;;;;;5032907;28;20079;-70
2022/01/26 12:16:54;;;;;;;5.03;0.77;;;23.30;92.40;;;;;;5032826;28;20025;-69
2022/01/26 12:41:11;;;;;;;8.02;1.30;;;23.40;92.90;;;;;;5033170;28;20052;-70
2022/01/26 12:42:23;;;;;;;3.05;1.20;;;23.40;92.90;;;;;;5032666;28;20028;-71
2022/01/26 12:45:00;;;;;;;7.05;1.20;;;23.30;93.00;;;;;;5033035;28;20017;-69
2022/01/26 12:47:28;;;;;;;4.75;1.35;;;23.30;93.30;;;;;;5031499;28;20026;-71
2022/01/26 12:49:58;;;;;;;4.25;0.95;;;23.20;93.30;;;;;;5032704;28;20025;-70
2022/01/26 12:52:26;;;;;;;7.80;1.45;;;23.20;93.50;;;;;;5032179;28;20394;-70
2022/01/26 12:54:53;;;;;;;7.32;1.58;;;23.20;93.50;;;;;;5032503;28;20110;-70
2022/01/26 12:57:20;;;;;;;5.40;0.90;;;23.20;93.60;;;;;;5032590;28;20022;-73
2022/01/26 12:59:47;;;;;;;5.93;1.10;;;23.30;93.60;;;;;;5032485;28;20107;-73
2022/01/26 13:02:23;;;;;;;6.22;1.17;;;23.30;93.60;;;;;;5032426;28;20359;-72
2022/01/26 13:05:02;;;;;;;7.13;1.23;;;23.40;93.70;;;;;;5032512;28;20030;-69
2022/01/26 13:07:30;;;;;;;8.27;1.65;;;23.50;93.60;;;;;;5032418;28;20467;-72
2022/01/26 13:09:57;;;;;;;8.25;1.67;;;23.50;93.70;;;;;;4934015;28;2815976;-69
2022/01/26 13:12:34;;;;;;;7.03;1.05;;;23.50;93.70;;;;;;5033063;28;20040;-73
2022/01/26 13:15:26;;;;;;;6.93;1.05;;;23.60;93.80;;;;;;5033160;28;20482;-69
2022/01/26 13:18:04;;;;;;;8.00;1.27;;;23.60;93.90;;;;;;5032613;28;20067;-70
2022/01/26 13:20:54;;;;;;;5.63;0.80;;;23.60;93.80;;;;;;5033098;28;20363;-71
2022/01/26 13:23:38;;;;;;;5.47;1.38;;;23.60;93.80;;;;;;5031825;28;20120;-70
2022/01/26 13:31:49;;;;;;;6.30;1.00;;;23.60;93.50;;;;;;5032697;28;20026;-68
2022/01/26 13:37:23;;;;;;;6.22;1.10;;;23.50;93.40;;;;;;5033047;28;20091;-69
2022/01/26 13:40:07;;;;;;;6.22;0.90;;;23.50;93.10;;;;;;5032769;28;20459;-69
2022/01/26 13:43:12;;;;;;;4.60;0.80;;;23.60;93.10;;;;;;5032439;28;20029;-69
2022/01/26 13:53:58;;;;;;;7.25;1.35;;;23.60;92.50;;;;;;5032471;28;20025;-70
2022/01/26 13:56:12;;;;;;;4.30;0.70;;;23.60;92.60;;;;;;5029577;28;20474;-69
2022/01/26 14:01:18;;;;;;;6.07;0.90;;;23.70;91.90;;;;;;5032313;28;20024;-69
2022/01/26 14:03:49;;;;;;;4.25;0.98;;;23.60;91.40;;;;;;5032375;28;20026;-69
2022/01/26 14:06:17;;;;;;;5.45;0.82;;;23.60;91.30;;;;;;5032536;28;20036;-70
2022/01/26 14:08:44;;;;;;;3.75;0.60;;;23.50;91.30;;;;;;5032511;28;20029;-70
2022/01/26 14:11:11;;;;;;;3.45;0.63;;;23.40;90.80;;;;;;5032180;28;20045;-69
2022/01/26 14:13:39;;;;;;;4.35;0.75;;;23.30;90.60;;;;;;5032030;28;20014;-69
2022/01/26 14:16:09;;;;;;;4.97;0.82;;;23.30;90.70;;;;;;5032530;28;20100;-69
2022/01/26 14:18:47;;;;;;;6.60;1.08;;;23.30;90.70;;;;;;5032204;28;20104;-69
2022/01/26 14:26:48;;;;;;;7.25;0.68;;;23.30;90.60;;;;;;5032141;28;20021;-72
2022/01/26 14:30:11;;;;;;;2.50;0.60;;;23.30;90.40;;;;;;5032195;28;20032;-69
2022/01/26 14:32:37;;;;;;;5.63;0.80;;;23.30;90.40;;;;;;5028988;28;20506;-69
2022/01/26 14:35:26;;;;;;;2.10;0.60;;;23.30;90.50;;;;;;5032361;28;20025;-72
2022/01/26 14:54:32;;;;;;;8.65;1.65;;;23.10;90.30;;;;;;5031672;28;20024;-70
2022/01/26 15:12:04;;;;;;;5.03;0.88;;;23.00;90.90;;;;;;5031821;28;20405;-69
2022/01/26 15:30:12;;;;;;;4.78;1.05;;;22.70;92.30;;;;;;5031592;28;20097;-69
2022/01/26 15:35:39;;;;;;;6.82;1.17;;;22.60;92.90;;;;;;5035217;28;20032;-69
2022/01/26 15:48:55;;;;;;;4.45;0.60;;;22.30;93.80;;;;;;5035141;28;20120;-68
2022/01/26 16:07:56;;;;;;;6.60;1.13;;;21.90;94.90;;;;;;5034672;28;20433;-69
2022/01/26 16:21:18;;;;;;;3.63;0.85;;;21.70;95.30;;;;;;5034359;28;20532;-69
2022/01/26 16:37:48;;;;;;;4.53;0.70;;;21.90;95.70;;;;;;5034021;28;20052;-67
2022/01/26 17:11:04;;;;;;;6.97;1.00;;;22.30;95.90;;;;;;5033547;28;20130;-68
2022/01/26 18:31:44;;;;;;;5.20;1.48;;;22.50;97.70;;;;;;5032202;28;20087;-68
2022/01/26 18:32:31;;;;;;;5.40;1.63;;;22.40;97.80;;;;;;5032139;28;20091;-69
2022/01/26 18:51:27;;;;;;;6.30;1.92;;;21.90;99.00;;;;;;5032226;28;20114;-68
2022/01/26 18:53:54;;;;;;;8.07;1.55;;;21.80;99.00;;;;;;5031846;28;20028;-70
2022/01/26 18:56:21;;;;;;;6.00;1.67;;;21.70;99.30;;;;;;5031632;28;20022;-69
2022/01/26 18:58:49;;;;;;;7.07;1.60;;;21.70;99.40;;;;;;5031762;28;20029;-70
2022/01/26 19:01:16;;;;;;;6.25;2.13;;;21.60;99.40;;;;;;5031603;28;20033;-68
2022/01/26 19:03:44;;;;;;;4.30;1.30;;;21.50;99.70;;;;;;5031724;28;20071;-68
2022/01/26 19:06:11;;;;;;;5.00;1.40;;;21.40;99.80;;;;;;5031990;28;20018;-69
2022/01/26 19:08:40;;;;;;;7.90;1.65;;;21.40;99.90;;;;;;5035397;28;20029;-68
2022/01/26 19:11:09;;;;;;;6.72;1.67;;;21.40;99.90;;;;;;5035237;28;20053;-68
2022/01/26 19:13:38;;;;;;;4.80;1.83;;;21.30;99.90;;;;;;5035449;28;20067;-69
2022/01/26 19:16:17;;;;;;;7.35;2.28;;;21.30;99.90;;;;;;5035165;28;20025;-68
2022/01/26 19:24:38;;;;;;;6.43;2.13;;;21.20;99.90;;;;;;5035630;28;20429;-71